sensor_id;sensor_type;location;lat;lon;timestamp;temperature;humidity
32965;DHT22;19317;48.226;11.686;2023-02-03T00:04:11;4.40;99.90
32965;DHT22;19317;48.226;11.686;2023-02-03T00:09:02;4.50;99.90
32965;DHT22;19317;48.226;11.686;2023-02-03T00:13:52;4.50;99.90
32965;DHT22;19317;48.226;11.686;2023-02-03T00:18:43;4.50;99.90
32965;DHT22;19317;48.226;11.686;2023-02-03T00:23:33;4.50;99.90
32965;DHT22;19317;48.226;11.686;2023-02-03T00:28:24;4.50;99.90
32965;DHT22;19317;48.226;11.686;2023-02-03T00:33:14;4.60;99.90
32965;DHT22;19317;48.226;11.686;2023-02-03T00:38:05;4.60;99.90
32965;DHT22;19317;48.226;11.686;2023-02-03T00:42:56;4.60;99.90
32965;DHT22;19317;48.226;11.686;2023-02-03T00:47:46;4.60;99.90
32965;DHT22;19317;48.226;11.686;2023-02-03T00:52:37;4.60;99.90
32965;DHT22;19317;48.226;11.686;2023-02-03T00:57:27;4.60;99.90
32965;DHT22;19317;48.226;11.686;2023-02-03T01:02:18;4.60;99.90
32965;DHT22;19317;48.226;11.686;2023-02-03T01:07:08;4.50;99.90
32965;DHT22;19317;48.226;11.686;2023-02-03T01:11:59;4.60;99.90
32965;DHT22;19317;48.226;11.686;2023-02-03T01:16:50;4.60;99.90
32965;DHT22;19317;48.226;11.686;2023-02-03T01:21:40;4.70;99.90
32965;DHT22;19317;48.226;11.686;2023-02-03T01:26:30;4.60;99.90
32965;DHT22;19317;48.226;11.686;2023-02-03T01:31:40;4.60;99.90
32965;DHT22;19317;48.226;11.686;2023-02-03T01:36:33;4.60;99.90
32965;DHT22;19317;48.226;11.686;2023-02-03T01:41:26;4.70;99.90
32965;DHT22;19317;48.226;11.686;2023-02-03T01:51:16;4.70;99.90
32965;DHT22;19317;48.226;11.686;2023-02-03T01:56:08;4.70;99.90
32965;DHT22;19317;48.226;11.686;2023-02-03T02:00:59;4.80;99.90
32965;DHT22;19317;48.226;11.686;2023-02-03T02:05:53;4.80;99.90
32965;DHT22;19317;48.226;11.686;2023-02-03T02:10:46;4.80;99.90
32965;DHT22;19317;48.226;11.686;2023-02-03T02:15:58;4.80;99.90
32965;DHT22;19317;48.226;11.686;2023-02-03T02:26:37;4.80;99.90
32965;DHT22;19317;48.226;11.686;2023-02-03T02:31:47;4.90;99.90
32965;DHT22;19317;48.226;11.686;2023-02-03T02:41:48;4.90;99.90
32965;DHT22;19317;48.226;11.686;2023-02-03T02:46:56;4.90;99.90
32965;DHT22;19317;48.226;11.686;2023-02-03T02:51:48;4.90;99.90
32965;DHT22;19317;48.226;11.686;2023-02-03T02:56:41;4.90;99.90
32965;DHT22;19317;48.226;11.686;2023-02-03T03:01:33;4.90;99.90
32965;DHT22;19317;48.226;11.686;2023-02-03T03:06:47;4.90;99.90
32965;DHT22;19317;48.226;11.686;2023-02-03T03:11:50;5.00;99.90
32965;DHT22;19317;48.226;11.686;2023-02-03T03:16:47;4.90;99.90
32965;DHT22;19317;48.226;11.686;2023-02-03T03:21:43;5.00;99.90
32965;DHT22;19317;48.226;11.686;2023-02-03T03:31:44;5.00;99.90
32965;DHT22;19317;48.226;11.686;2023-02-03T03:36:47;5.00;99.90
32965;DHT22;19317;48.226;11.686;2023-02-03T03:41:53;5.00;99.90
32965;DHT22;19317;48.226;11.686;2023-02-03T03:46:53;5.00;99.90
32965;DHT22;19317;48.226;11.686;2023-02-03T03:51:49;5.00;99.90
32965;DHT22;19317;48.226;11.686;2023-02-03T03:56:53;5.00;99.90
32965;DHT22;19317;48.226;11.686;2023-02-03T04:01:47;5.00;99.90
32965;DHT22;19317;48.226;11.686;2023-02-03T04:06:38;5.00;99.90
32965;DHT22;19317;48.226;11.686;2023-02-03T04:11:29;5.00;99.90
32965;DHT22;19317;48.226;11.686;2023-02-03T04:16:19;5.00;99.90
32965;DHT22;19317;48.226;11.686;2023-02-03T04:21:10;5.00;99.90
32965;DHT22;19317;48.226;11.686;2023-02-03T04:26:00;5.00;99.90
32965;DHT22;19317;48.226;11.686;2023-02-03T04:30:51;5.00;99.90
32965;DHT22;19317;48.226;11.686;2023-02-03T04:35:41;5.00;99.90
32965;DHT22;19317;48.226;11.686;2023-02-03T04:40:32;5.00;99.90
32965;DHT22;19317;48.226;11.686;2023-02-03T04:45:22;4.90;99.90
32965;DHT22;19317;48.226;11.686;2023-02-03T04:50:12;4.90;99.90
32965;DHT22;19317;48.226;11.686;2023-02-03T04:55:03;4.90;99.90
32965;DHT22;19317;48.226;11.686;2023-02-03T04:59:54;4.90;99.90
32965;DHT22;19317;48.226;11.686;2023-02-03T05:04:44;4.90;99.90
32965;DHT22;19317;48.226;11.686;2023-02-03T05:09:35;4.90;99.90
32965;DHT22;19317;48.226;11.686;2023-02-03T05:14:25;4.90;99.90
32965;DHT22;19317;48.226;11.686;2023-02-03T05:19:15;4.90;99.90
32965;DHT22;19317;48.226;11.686;2023-02-03T05:24:06;4.90;99.90
32965;DHT22;19317;48.226;11.686;2023-02-03T05:28:57;4.80;99.90
32965;DHT22;19317;48.226;11.686;2023-02-03T05:33:47;4.80;99.90
32965;DHT22;19317;48.226;11.686;2023-02-03T05:38:37;4.80;99.90
32965;DHT22;19317;48.226;11.686;2023-02-03T05:43:28;4.80;99.90
32965;DHT22;19317;48.226;11.686;2023-02-03T05:48:19;4.80;99.90
32965;DHT22;19317;48.226;11.686;2023-02-03T05:53:09;4.90;99.90
32965;DHT22;19317;48.226;11.686;2023-02-03T05:58:00;4.80;99.90
32965;DHT22;19317;48.226;11.686;2023-02-03T06:02:51;4.90;99.90
32965;DHT22;19317;48.226;11.686;2023-02-03T06:07:42;4.90;99.90
32965;DHT22;19317;48.226;11.686;2023-02-03T06:12:32;4.80;99.90
32965;DHT22;19317;48.226;11.686;2023-02-03T06:17:23;4.90;99.90
32965;DHT22;19317;48.226;11.686;2023-02-03T06:22:13;4.90;99.90
32965;DHT22;19317;48.226;11.686;2023-02-03T06:27:04;4.90;99.90
32965;DHT22;19317;48.226;11.686;2023-02-03T06:31:54;4.90;99.90
32965;DHT22;19317;48.226;11.686;2023-02-03T06:36:45;4.90;99.90
32965;DHT22;19317;48.226;11.686;2023-02-03T06:41:35;4.90;99.90
32965;DHT22;19317;48.226;11.686;2023-02-03T06:46:25;5.00;99.90
32965;DHT22;19317;48.226;11.686;2023-02-03T06:51:16;5.00;99.90
32965;DHT22;19317;48.226;11.686;2023-02-03T06:56:06;4.90;99.90
32965;DHT22;19317;48.226;11.686;2023-02-03T07:00:57;5.00;99.90
32965;DHT22;19317;48.226;11.686;2023-02-03T07:05:47;5.00;99.90
32965;DHT22;19317;48.226;11.686;2023-02-03T07:10:38;5.00;99.90
32965;DHT22;19317;48.226;11.686;2023-02-03T07:15:28;4.90;99.90
32965;DHT22;19317;48.226;11.686;2023-02-03T07:20:19;4.90;99.90
32965;DHT22;19317;48.226;11.686;2023-02-03T07:25:10;4.90;99.90
32965;DHT22;19317;48.226;11.686;2023-02-03T07:30:00;4.90;99.90
32965;DHT22;19317;48.226;11.686;2023-02-03T07:34:50;4.90;99.90
32965;DHT22;19317;48.226;11.686;2023-02-03T07:39:41;4.90;99.90
32965;DHT22;19317;48.226;11.686;2023-02-03T07:44:31;5.00;99.90
32965;DHT22;19317;48.226;11.686;2023-02-03T07:49:22;5.00;99.90
32965;DHT22;19317;48.226;11.686;2023-02-03T07:54:12;5.10;99.90
32965;DHT22;19317;48.226;11.686;2023-02-03T07:59:03;5.10;99.90
32965;DHT22;19317;48.226;11.686;2023-02-03T08:03:53;5.10;99.90
32965;DHT22;19317;48.226;11.686;2023-02-03T08:08:44;5.20;99.90
32965;DHT22;19317;48.226;11.686;2023-02-03T08:13:34;5.30;99.90
32965;DHT22;19317;48.226;11.686;2023-02-03T08:18:25;5.40;99.90
32965;DHT22;19317;48.226;11.686;2023-02-03T08:23:15;5.40;99.90
32965;DHT22;19317;48.226;11.686;2023-02-03T08:28:06;5.50;99.90
32965;DHT22;19317;48.226;11.686;2023-02-03T08:32:57;5.50;99.90
32965;DHT22;19317;48.226;11.686;2023-02-03T08:37:48;5.60;99.90
32965;DHT22;19317;48.226;11.686;2023-02-03T08:42:38;5.60;99.90
32965;DHT22;19317;48.226;11.686;2023-02-03T08:47:29;5.60;99.90
32965;DHT22;19317;48.226;11.686;2023-02-03T08:52:20;5.60;99.90
32965;DHT22;19317;48.226;11.686;2023-02-03T08:57:11;5.60;99.90
32965;DHT22;19317;48.226;11.686;2023-02-03T09:02:03;5.60;99.90
32965;DHT22;19317;48.226;11.686;2023-02-03T09:06:54;5.70;99.90
32965;DHT22;19317;48.226;11.686;2023-02-03T09:11:44;5.70;99.90
32965;DHT22;19317;48.226;11.686;2023-02-03T09:16:35;5.70;99.90
32965;DHT22;19317;48.226;11.686;2023-02-03T09:21:26;5.80;99.90
32965;DHT22;19317;48.226;11.686;2023-02-03T09:26:17;5.80;99.90
32965;DHT22;19317;48.226;11.686;2023-02-03T09:31:13;5.90;99.90
32965;DHT22;19317;48.226;11.686;2023-02-03T09:36:05;5.90;99.90
32965;DHT22;19317;48.226;11.686;2023-02-03T09:41:03;5.90;99.90
32965;DHT22;19317;48.226;11.686;2023-02-03T09:46:15;6.00;99.90
32965;DHT22;19317;48.226;11.686;2023-02-03T09:51:21;6.10;99.90
32965;DHT22;19317;48.226;11.686;2023-02-03T09:56:24;6.20;99.90
32965;DHT22;19317;48.226;11.686;2023-02-03T10:01:15;6.20;99.90
32965;DHT22;19317;48.226;11.686;2023-02-03T10:06:32;6.30;99.90
32965;DHT22;19317;48.226;11.686;2023-02-03T10:11:40;6.30;99.90
32965;DHT22;19317;48.226;11.686;2023-02-03T10:17:04;6.30;99.90
32965;DHT22;19317;48.226;11.686;2023-02-03T10:22:02;6.40;99.90
32965;DHT22;19317;48.226;11.686;2023-02-03T10:26:54;6.40;99.90
32965;DHT22;19317;48.226;11.686;2023-02-03T10:31:44;6.40;99.90
32965;DHT22;19317;48.226;11.686;2023-02-03T10:41:47;6.50;99.90
32965;DHT22;19317;48.226;11.686;2023-02-03T10:46:39;6.50;99.80
32965;DHT22;19317;48.226;11.686;2023-02-03T10:51:49;6.50;99.80
32965;DHT22;19317;48.226;11.686;2023-02-03T10:56:40;6.50;99.90
32965;DHT22;19317;48.226;11.686;2023-02-03T11:01:45;6.60;99.70
32965;DHT22;19317;48.226;11.686;2023-02-03T11:06:59;6.60;99.50
32965;DHT22;19317;48.226;11.686;2023-02-03T11:12:19;6.60;99.50
32965;DHT22;19317;48.226;11.686;2023-02-03T11:22:05;6.70;99.40
32965;DHT22;19317;48.226;11.686;2023-02-03T11:27:02;6.60;99.10
32965;DHT22;19317;48.226;11.686;2023-02-03T11:31:55;6.70;99.20
32965;DHT22;19317;48.226;11.686;2023-02-03T11:36:46;6.70;99.00
32965;DHT22;19317;48.226;11.686;2023-02-03T11:41:38;6.80;98.90
32965;DHT22;19317;48.226;11.686;2023-02-03T11:46:29;6.80;99.00
32965;DHT22;19317;48.226;11.686;2023-02-03T12:27:25;6.80;98.70
32965;DHT22;19317;48.226;11.686;2023-02-03T12:37:29;6.90;98.90
32965;DHT22;19317;48.226;11.686;2023-02-03T12:42:23;6.90;98.70
32965;DHT22;19317;48.226;11.686;2023-02-03T12:47:24;6.90;98.50
32965;DHT22;19317;48.226;11.686;2023-02-03T12:52:25;6.90;98.60
32965;DHT22;19317;48.226;11.686;2023-02-03T12:57:33;7.00;98.50
32965;DHT22;19317;48.226;11.686;2023-02-03T13:02:30;7.00;98.50
32965;DHT22;19317;48.226;11.686;2023-02-03T13:08:08;7.00;98.60
32965;DHT22;19317;48.226;11.686;2023-02-03T13:12:42;7.00;98.40
32965;DHT22;19317;48.226;11.686;2023-02-03T13:17:44;7.00;98.50
32965;DHT22;19317;48.226;11.686;2023-02-03T13:22:35;7.00;98.50
32965;DHT22;19317;48.226;11.686;2023-02-03T13:27:29;7.10;98.90
32965;DHT22;19317;48.226;11.686;2023-02-03T13:32:44;7.00;98.70
32965;DHT22;19317;48.226;11.686;2023-02-03T13:42:53;6.90;99.00
32965;DHT22;19317;48.226;11.686;2023-02-03T13:47:46;6.90;98.90
32965;DHT22;19317;48.226;11.686;2023-02-03T13:52:44;6.80;99.00
32965;DHT22;19317;48.226;11.686;2023-02-03T13:57:37;6.80;99.10
32965;DHT22;19317;48.226;11.686;2023-02-03T14:02:42;6.80;98.90
32965;DHT22;19317;48.226;11.686;2023-02-03T14:07:38;6.80;99.00
32965;DHT22;19317;48.226;11.686;2023-02-03T14:22:25;6.70;99.10
32965;DHT22;19317;48.226;11.686;2023-02-03T14:27:26;6.70;99.00
32965;DHT22;19317;48.226;11.686;2023-02-03T14:32:17;6.70;99.10
32965;DHT22;19317;48.226;11.686;2023-02-03T14:37:19;6.70;99.10
32965;DHT22;19317;48.226;11.686;2023-02-03T14:42:18;6.70;99.30
32965;DHT22;19317;48.226;11.686;2023-02-03T15:02:27;6.70;99.40
32965;DHT22;19317;48.226;11.686;2023-02-03T15:07:41;6.70;99.50
32965;DHT22;19317;48.226;11.686;2023-02-03T15:12:35;6.70;99.30
32965;DHT22;19317;48.226;11.686;2023-02-03T15:17:27;6.70;99.30
32965;DHT22;19317;48.226;11.686;2023-02-03T15:22:28;6.70;99.50
32965;DHT22;19317;48.226;11.686;2023-02-03T15:27:25;6.70;99.50
32965;DHT22;19317;48.226;11.686;2023-02-03T15:32:21;6.70;99.60
32965;DHT22;19317;48.226;11.686;2023-02-03T15:37:20;6.60;99.70
32965;DHT22;19317;48.226;11.686;2023-02-03T15:42:25;6.60;99.90
32965;DHT22;19317;48.226;11.686;2023-02-03T15:47:26;6.60;99.90
32965;DHT22;19317;48.226;11.686;2023-02-03T15:52:20;6.50;99.90
32965;DHT22;19317;48.226;11.686;2023-02-03T15:57:24;6.50;99.90
32965;DHT22;19317;48.226;11.686;2023-02-03T16:02:25;6.50;99.90
32965;DHT22;19317;48.226;11.686;2023-02-03T16:07:25;6.50;99.90
32965;DHT22;19317;48.226;11.686;2023-02-03T16:12:32;6.40;99.90
32965;DHT22;19317;48.226;11.686;2023-02-03T16:17:31;6.40;99.90
32965;DHT22;19317;48.226;11.686;2023-02-03T16:22:29;6.40;99.90
32965;DHT22;19317;48.226;11.686;2023-02-03T16:32:18;6.40;99.90
32965;DHT22;19317;48.226;11.686;2023-02-03T16:42:18;6.30;99.90
32965;DHT22;19317;48.226;11.686;2023-02-03T16:47:31;6.30;99.90
32965;DHT22;19317;48.226;11.686;2023-02-03T16:52:21;6.20;99.90
32965;DHT22;19317;48.226;11.686;2023-02-03T16:57:12;6.20;99.90
32965;DHT22;19317;48.226;11.686;2023-02-03T17:02:02;6.10;99.90
32965;DHT22;19317;48.226;11.686;2023-02-03T17:06:53;6.00;99.90
32965;DHT22;19317;48.226;11.686;2023-02-03T17:11:43;5.90;99.90
32965;DHT22;19317;48.226;11.686;2023-02-03T17:16:33;5.80;99.90
32965;DHT22;19317;48.226;11.686;2023-02-03T17:21:26;5.80;99.90
32965;DHT22;19317;48.226;11.686;2023-02-03T17:26:17;5.80;99.90
32965;DHT22;19317;48.226;11.686;2023-02-03T17:31:12;5.80;99.90
32965;DHT22;19317;48.226;11.686;2023-02-03T17:36:13;5.80;99.90
32965;DHT22;19317;48.226;11.686;2023-02-03T17:41:09;5.80;99.90
32965;DHT22;19317;48.226;11.686;2023-02-03T17:45:59;5.80;99.90
32965;DHT22;19317;48.226;11.686;2023-02-03T17:50:50;5.80;99.90
32965;DHT22;19317;48.226;11.686;2023-02-03T17:55:40;5.80;99.90
32965;DHT22;19317;48.226;11.686;2023-02-03T18:00:31;5.80;99.90
32965;DHT22;19317;48.226;11.686;2023-02-03T18:05:21;5.80;99.90
32965;DHT22;19317;48.226;11.686;2023-02-03T18:10:12;5.70;99.90
32965;DHT22;19317;48.226;11.686;2023-02-03T18:15:02;5.60;99.90
32965;DHT22;19317;48.226;11.686;2023-02-03T18:19:53;5.50;99.90
32965;DHT22;19317;48.226;11.686;2023-02-03T18:24:43;5.40;99.90
32965;DHT22;19317;48.226;11.686;2023-02-03T18:29:34;5.40;99.90
32965;DHT22;19317;48.226;11.686;2023-02-03T18:34:24;5.30;99.90
32965;DHT22;19317;48.226;11.686;2023-02-03T18:39:15;5.40;99.90
32965;DHT22;19317;48.226;11.686;2023-02-03T18:44:05;5.20;99.90
32965;DHT22;19317;48.226;11.686;2023-02-03T18:48:56;5.30;99.90
32965;DHT22;19317;48.226;11.686;2023-02-03T18:53:47;5.20;99.90
32965;DHT22;19317;48.226;11.686;2023-02-03T18:58:38;5.30;99.90
32965;DHT22;19317;48.226;11.686;2023-02-03T19:03:28;5.30;99.90
32965;DHT22;19317;48.226;11.686;2023-02-03T19:08:19;5.30;99.90
32965;DHT22;19317;48.226;11.686;2023-02-03T19:13:10;5.30;99.90
32965;DHT22;19317;48.226;11.686;2023-02-03T19:18:00;5.20;99.90
32965;DHT22;19317;48.226;11.686;2023-02-03T19:22:51;5.30;99.90
32965;DHT22;19317;48.226;11.686;2023-02-03T19:27:41;5.30;99.90
32965;DHT22;19317;48.226;11.686;2023-02-03T19:32:32;5.30;99.90
32965;DHT22;19317;48.226;11.686;2023-02-03T19:37:22;5.40;99.90
32965;DHT22;19317;48.226;11.686;2023-02-03T19:42:13;5.40;99.90
32965;DHT22;19317;48.226;11.686;2023-02-03T19:47:03;5.40;99.90
32965;DHT22;19317;48.226;11.686;2023-02-03T19:51:54;5.30;99.90
32965;DHT22;19317;48.226;11.686;2023-02-03T19:56:44;5.40;99.90
32965;DHT22;19317;48.226;11.686;2023-02-03T20:01:35;5.40;99.90
32965;DHT22;19317;48.226;11.686;2023-02-03T20:06:27;5.40;99.90
32965;DHT22;19317;48.226;11.686;2023-02-03T20:11:18;5.50;99.90
32965;DHT22;19317;48.226;11.686;2023-02-03T20:16:08;5.50;99.90
32965;DHT22;19317;48.226;11.686;2023-02-03T20:20:59;5.50;99.90
32965;DHT22;19317;48.226;11.686;2023-02-03T20:25:50;5.40;99.90
32965;DHT22;19317;48.226;11.686;2023-02-03T20:30:41;5.50;99.90
32965;DHT22;19317;48.226;11.686;2023-02-03T20:35:32;5.40;99.90
32965;DHT22;19317;48.226;11.686;2023-02-03T20:40:23;5.50;99.90
32965;DHT22;19317;48.226;11.686;2023-02-03T20:45:18;5.40;99.90
32965;DHT22;19317;48.226;11.686;2023-02-03T20:50:13;5.50;99.90
32965;DHT22;19317;48.226;11.686;2023-02-03T20:55:21;5.50;99.90
32965;DHT22;19317;48.226;11.686;2023-02-03T21:00:17;5.50;99.90
32965;DHT22;19317;48.226;11.686;2023-02-03T21:05:22;5.50;99.90
32965;DHT22;19317;48.226;11.686;2023-02-03T21:10:17;5.60;99.90
32965;DHT22;19317;48.226;11.686;2023-02-03T21:15:20;5.60;99.90
32965;DHT22;19317;48.226;11.686;2023-02-03T21:20:29;5.50;99.90
32965;DHT22;19317;48.226;11.686;2023-02-03T21:25:40;5.40;99.90
32965;DHT22;19317;48.226;11.686;2023-02-03T21:30:32;5.40;99.90
32965;DHT22;19317;48.226;11.686;2023-02-03T21:35:36;5.40;99.90
32965;DHT22;19317;48.226;11.686;2023-02-03T21:40:29;5.40;99.90
32965;DHT22;19317;48.226;11.686;2023-02-03T21:50:33;5.40;99.90
32965;DHT22;19317;48.226;11.686;2023-02-03T21:55:24;5.40;99.90
32965;DHT22;19317;48.226;11.686;2023-02-03T22:00:43;5.40;99.90
32965;DHT22;19317;48.226;11.686;2023-02-03T22:05:34;5.40;99.90
32965;DHT22;19317;48.226;11.686;2023-02-03T22:10:24;5.30;99.90
32965;DHT22;19317;48.226;11.686;2023-02-03T22:15:14;5.30;99.90
32965;DHT22;19317;48.226;11.686;2023-02-03T22:20:05;5.20;99.90
32965;DHT22;19317;48.226;11.686;2023-02-03T22:24:56;5.10;99.90
32965;DHT22;19317;48.226;11.686;2023-02-03T22:29:46;5.10;99.90
32965;DHT22;19317;48.226;11.686;2023-02-03T22:34:37;5.00;99.90
32965;DHT22;19317;48.226;11.686;2023-02-03T22:39:27;5.00;99.90
32965;DHT22;19317;48.226;11.686;2023-02-03T22:44:18;5.00;99.90
32965;DHT22;19317;48.226;11.686;2023-02-03T22:49:08;4.90;99.90
32965;DHT22;19317;48.226;11.686;2023-02-03T22:53:58;4.90;99.90
32965;DHT22;19317;48.226;11.686;2023-02-03T22:58:49;5.00;99.90
32965;DHT22;19317;48.226;11.686;2023-02-03T23:03:39;4.80;99.90
32965;DHT22;19317;48.226;11.686;2023-02-03T23:08:30;4.80;99.90
32965;DHT22;19317;48.226;11.686;2023-02-03T23:13:20;4.80;99.90
32965;DHT22;19317;48.226;11.686;2023-02-03T23:18:11;4.70;99.90
32965;DHT22;19317;48.226;11.686;2023-02-03T23:23:02;4.70;99.90
32965;DHT22;19317;48.226;11.686;2023-02-03T23:27:52;4.70;99.90
32965;DHT22;19317;48.226;11.686;2023-02-03T23:32:43;4.70;99.90
32965;DHT22;19317;48.226;11.686;2023-02-03T23:37:33;4.60;99.90
32965;DHT22;19317;48.226;11.686;2023-02-03T23:42:24;4.70;99.90
32965;DHT22;19317;48.226;11.686;2023-02-03T23:47:14;4.70;99.90
32965;DHT22;19317;48.226;11.686;2023-02-03T23:52:05;4.70;99.90
32965;DHT22;19317;48.226;11.686;2023-02-03T23:56:55;4.70;99.90
